createdAt,value
2023-02-11T00:01:37.083Z,6.22
2023-02-11T00:04:10.750Z,6.24
2023-02-11T00:06:44.431Z,6.33
2023-02-11T00:09:17.985Z,6.33
2023-02-11T00:11:51.795Z,6.29
2023-02-11T00:14:27.331Z,6.32
2023-02-11T00:17:01.640Z,6.20
2023-02-11T00:19:35.219Z,6.13
2023-02-11T00:22:09.066Z,6.19
2023-02-11T00:24:42.738Z,6.16
2023-02-11T00:27:16.529Z,6.10
2023-02-11T00:29:51.429Z,6.11
2023-02-11T00:32:25.358Z,6.18
2023-02-11T00:34:58.927Z,6.20
2023-02-11T00:37:36.393Z,6.10
2023-02-11T00:40:10.935Z,6.09
2023-02-11T00:42:44.816Z,6.06
2023-02-11T00:45:21.287Z,5.98
2023-02-11T00:47:55.148Z,6.01
2023-02-11T00:50:28.766Z,5.96
2023-02-11T00:53:02.589Z,5.96
2023-02-11T00:55:36.210Z,5.92
2023-02-11T00:58:09.922Z,5.94
2023-02-11T01:00:45.054Z,5.93
2023-02-11T01:03:18.825Z,5.87
2023-02-11T01:05:53.457Z,5.83
2023-02-11T01:08:27.808Z,5.82
2023-02-11T01:11:03.560Z,5.82
2023-02-11T01:13:38.144Z,5.81
2023-02-11T01:16:16.240Z,5.81
2023-02-11T01:18:50.516Z,5.91
2023-02-11T01:21:24.174Z,5.97
2023-02-11T01:23:58.021Z,5.93
2023-02-11T01:26:31.643Z,5.97
2023-02-11T01:29:05.340Z,6.07
2023-02-11T01:31:40.399Z,6.10
2023-02-11T01:34:15.188Z,6.18
2023-02-11T01:36:48.997Z,6.17
2023-02-11T01:39:22.904Z,6.21
2023-02-11T01:41:56.645Z,6.10
2023-02-11T01:44:32.378Z,6.09
2023-02-11T01:47:07.900Z,6.06
2023-02-11T01:49:45.611Z,6.06
2023-02-11T01:52:22.895Z,6.11
2023-02-11T01:55:18.106Z,6.12
2023-02-11T01:57:56.364Z,6.15
2023-02-11T02:00:35.658Z,6.19
2023-02-11T02:03:15.554Z,6.19
2023-02-11T02:05:54.879Z,6.22
2023-02-11T02:08:35.097Z,6.15
2023-02-11T02:11:09.430Z,6.17
2023-02-11T02:13:43.132Z,6.16
2023-02-11T02:16:20.512Z,6.18
2023-02-11T02:19:04.256Z,6.16
2023-02-11T02:21:59.259Z,6.17
2023-02-11T02:24:57.719Z,6.15
2023-02-11T02:27:43.398Z,6.09
2023-02-11T02:31:06.506Z,6.17
2023-02-11T02:33:54.264Z,6.20
2023-02-11T02:36:35.665Z,6.20
2023-02-11T02:39:13.641Z,6.25
2023-02-11T02:41:49.692Z,6.23
2023-02-11T02:44:24.185Z,6.32
2023-02-11T02:46:58.458Z,6.32
2023-02-11T02:49:33.932Z,6.32
2023-02-11T02:52:27.763Z,6.30
2023-02-11T02:55:13.925Z,6.36
2023-02-11T02:58:11.700Z,6.42
2023-02-11T03:00:50.779Z,6.42
2023-02-11T03:03:27.791Z,6.48
2023-02-11T03:06:09.882Z,6.51
2023-02-11T03:08:47.962Z,6.42
2023-02-11T03:11:23.058Z,6.44
2023-02-11T03:13:58.240Z,6.45
2023-02-11T03:16:36.048Z,6.41
2023-02-11T03:19:14.241Z,6.40
2023-02-11T03:21:52.809Z,6.40
2023-02-11T03:24:30.701Z,6.35
2023-02-11T03:27:10.407Z,6.42
2023-02-11T03:29:51.578Z,6.42
2023-02-11T03:32:30.371Z,6.40
2023-02-11T03:35:10.162Z,6.46
2023-02-11T03:37:52.533Z,6.42
2023-02-11T03:40:29.608Z,6.44
2023-02-11T03:43:11.481Z,6.42
2023-02-11T03:45:47.152Z,6.42
2023-02-11T03:48:24.763Z,6.46
2023-02-11T03:51:00.978Z,6.48
2023-02-11T03:53:37.524Z,6.55
2023-02-11T03:56:15.780Z,6.57
2023-02-11T03:58:49.930Z,6.61
2023-02-11T04:01:23.895Z,6.66
2023-02-11T04:03:57.887Z,6.71
2023-02-11T04:06:31.505Z,6.71
2023-02-11T04:09:06.926Z,6.73
2023-02-11T04:11:40.560Z,6.79
2023-02-11T04:14:14.305Z,6.74
2023-02-11T04:16:47.986Z,6.81
2023-02-11T04:19:21.871Z,6.87
2023-02-11T04:21:55.499Z,6.91
2023-02-11T04:24:30.600Z,6.91
2023-02-11T04:27:04.504Z,7.00
2023-02-11T04:29:38.514Z,6.93
2023-02-11T04:32:12.578Z,7.00
2023-02-11T04:34:46.397Z,7.02
2023-02-11T04:37:20.038Z,7.09
2023-02-11T04:39:55.401Z,7.06
2023-02-11T04:42:29.372Z,7.15
2023-02-11T04:45:03.235Z,7.13
2023-02-11T04:47:37.932Z,7.16
2023-02-11T04:50:11.869Z,7.20
2023-02-11T04:52:45.569Z,7.24
2023-02-11T04:55:20.713Z,7.21
2023-02-11T04:57:55.288Z,7.22
2023-02-11T05:00:29.160Z,7.23
2023-02-11T05:03:02.881Z,7.21
2023-02-11T05:05:39.698Z,7.20
2023-02-11T05:08:13.408Z,7.21
2023-02-11T05:10:49.055Z,7.24
2023-02-11T05:13:22.803Z,7.28
2023-02-11T05:15:56.864Z,7.25
2023-02-11T05:18:30.408Z,7.24
2023-02-11T05:21:07.580Z,7.22
2023-02-11T05:23:41.783Z,7.20
2023-02-11T05:26:16.939Z,7.17
2023-02-11T05:28:50.633Z,7.15
2023-02-11T05:31:24.555Z,7.17
2023-02-11T05:33:58.081Z,7.19
2023-02-11T05:36:33.448Z,7.16
2023-02-11T05:39:07.500Z,7.21
2023-02-11T05:41:42.796Z,7.18
2023-02-11T05:44:16.420Z,7.24
2023-02-11T05:46:50.330Z,7.20
2023-02-11T05:49:24.117Z,7.19
2023-02-11T05:51:57.968Z,7.19
2023-02-11T05:54:31.570Z,7.23
2023-02-11T05:57:06.834Z,7.17
2023-02-11T05:59:40.924Z,7.20
2023-02-11T06:02:14.682Z,7.19
2023-02-11T06:04:48.248Z,7.17
2023-02-11T06:07:22.001Z,7.19
2023-02-11T06:09:55.658Z,7.19
2023-02-11T06:12:30.772Z,7.25
2023-02-11T06:15:05.298Z,7.30
2023-02-11T06:17:39.408Z,7.27
2023-02-11T06:20:13.683Z,7.24
2023-02-11T06:22:48.164Z,7.33
2023-02-11T06:25:21.909Z,7.35
2023-02-11T06:27:57.054Z,7.35
2023-02-11T06:30:30.638Z,7.34
2023-02-11T06:33:04.528Z,7.32
2023-02-11T06:35:39.511Z,7.33
2023-02-11T06:38:13.390Z,7.40
2023-02-11T06:40:51.411Z,7.41
2023-02-11T06:43:26.484Z,7.44
2023-02-11T06:46:00.144Z,7.43
2023-02-11T06:48:34.052Z,7.48
2023-02-11T06:51:09.774Z,7.47
2023-02-11T06:53:46.127Z,7.49
2023-02-11T06:56:21.678Z,7.53
2023-02-11T06:58:57.376Z,7.57
2023-02-11T07:01:30.969Z,7.46
2023-02-11T07:04:04.809Z,7.47
2023-02-11T07:06:38.578Z,7.46
2023-02-11T07:09:12.419Z,7.45
2023-02-11T07:11:45.937Z,7.48
2023-02-11T07:14:21.172Z,7.47
2023-02-11T07:16:54.720Z,7.47
2023-02-11T07:19:28.579Z,7.50
2023-02-11T07:22:02.110Z,7.47
2023-02-11T07:24:35.913Z,7.52
2023-02-11T07:27:09.478Z,7.51
2023-02-11T07:29:45.950Z,7.57
2023-02-11T07:32:19.572Z,7.58
2023-02-11T07:34:53.515Z,7.61
2023-02-11T07:37:27.255Z,7.69
2023-02-11T07:40:01.209Z,7.66
2023-02-11T07:42:35.691Z,7.65
2023-02-11T07:45:11.183Z,7.71
2023-02-11T07:47:45.752Z,7.76
2023-02-11T07:50:25.723Z,7.91
2023-02-11T07:52:59.229Z,7.85
2023-02-11T07:55:34.260Z,7.84
2023-02-11T07:58:07.849Z,7.86
2023-02-11T08:00:42.987Z,7.85
2023-02-11T08:03:16.608Z,7.83
2023-02-11T08:05:50.619Z,7.77
2023-02-11T08:08:24.365Z,7.85
2023-02-11T08:10:58.070Z,7.82
2023-02-11T08:13:31.667Z,7.82
2023-02-11T08:16:07.875Z,7.87
2023-02-11T08:18:41.571Z,7.88
2023-02-11T08:21:15.374Z,7.85
2023-02-11T08:23:49.694Z,7.91
2023-02-11T08:26:26.596Z,7.88
2023-02-11T08:29:00.476Z,7.97
2023-02-11T08:31:37.879Z,7.85
2023-02-11T08:34:14.101Z,7.80
2023-02-11T08:36:48.719Z,7.89
2023-02-11T08:39:23.502Z,7.87
2023-02-11T08:41:57.935Z,7.94
2023-02-11T08:44:31.512Z,7.83
2023-02-11T08:47:06.605Z,7.87
2023-02-11T08:49:42.316Z,7.94
2023-02-11T08:52:16.195Z,7.94
2023-02-11T08:54:50.868Z,7.93
2023-02-11T08:57:24.738Z,7.91
2023-02-11T08:59:58.424Z,7.93
2023-02-11T09:02:33.609Z,7.91
2023-02-11T09:05:08.394Z,7.86
2023-02-11T09:07:42.214Z,7.88
2023-02-11T09:10:15.927Z,7.87
2023-02-11T09:12:49.679Z,7.94
2023-02-11T09:15:23.283Z,7.93
2023-02-11T09:17:58.507Z,7.98
2023-02-11T09:20:32.224Z,8.00
2023-02-11T09:23:06.078Z,7.98
2023-02-11T09:25:41.052Z,8.09
2023-02-11T09:28:14.898Z,8.00
2023-02-11T09:30:48.650Z,8.06
2023-02-11T09:33:23.815Z,8.11
2023-02-11T09:35:57.456Z,8.17
2023-02-11T09:38:32.608Z,8.12
2023-02-11T09:41:08.571Z,8.14
2023-02-11T09:43:47.595Z,8.19
2023-02-11T09:46:22.564Z,8.24
2023-02-11T09:48:58.161Z,8.25
2023-02-11T09:51:41.851Z,8.24
2023-02-11T09:54:22.046Z,8.28
2023-02-11T09:56:55.524Z,8.38
2023-02-11T09:59:29.397Z,8.45
2023-02-11T10:02:10.781Z,8.55
2023-02-11T10:05:06.771Z,8.49
2023-02-11T10:07:49.353Z,8.50
2023-02-11T10:10:37.514Z,8.45
2023-02-11T10:13:29.714Z,8.48
2023-02-11T10:16:15.828Z,8.56
2023-02-11T10:19:31.593Z,8.48
2023-02-11T10:25:21.977Z,8.53
2023-02-11T10:28:00.850Z,8.52
2023-02-11T10:30:38.565Z,8.56
2023-02-11T10:33:21.280Z,8.55
2023-02-11T10:35:55.364Z,8.52
2023-02-11T10:38:29.521Z,8.53
2023-02-11T10:41:04.853Z,8.43
2023-02-11T10:43:42.576Z,8.44
2023-02-11T10:46:21.506Z,8.49
2023-02-11T10:48:55.571Z,8.53
2023-02-11T10:51:31.561Z,8.57
2023-02-11T10:54:21.235Z,8.53
2023-02-11T10:57:00.951Z,8.51
2023-02-11T10:59:40.294Z,8.51
2023-02-11T11:02:24.601Z,8.53
2023-02-11T11:04:59.948Z,8.58
2023-02-11T11:07:35.290Z,8.65
2023-02-11T11:10:27.991Z,8.65
2023-02-11T11:13:02.852Z,8.60
2023-02-11T11:15:36.773Z,8.65
2023-02-11T11:18:22.177Z,8.67
2023-02-11T11:21:00.837Z,8.66
2023-02-11T11:23:36.865Z,8.67
2023-02-11T11:26:13.466Z,8.57
2023-02-11T11:29:02.501Z,8.67
2023-02-11T11:31:48.410Z,8.69
2023-02-11T11:34:28.019Z,8.74
2023-02-11T11:37:11.455Z,8.70
2023-02-11T11:39:55.428Z,8.80
2023-02-11T11:42:31.472Z,8.86
2023-02-11T11:45:26.552Z,8.70
2023-02-11T11:48:06.996Z,8.84
2023-02-11T11:50:44.430Z,8.84
2023-02-11T11:53:24.630Z,8.81
2023-02-11T11:56:02.667Z,8.87
2023-02-11T11:58:36.672Z,8.88
2023-02-11T12:01:25.085Z,8.86
2023-02-11T12:04:20.502Z,8.93
2023-02-11T12:07:06.306Z,8.92
2023-02-11T12:09:51.935Z,8.97
2023-02-11T12:12:40.182Z,8.90
2023-02-11T12:15:29.557Z,8.86
2023-02-11T12:18:18.746Z,8.90
2023-02-11T12:21:16.401Z,8.81
2023-02-11T12:24:07.143Z,8.86
2023-02-11T12:26:46.041Z,8.86
2023-02-11T12:29:29.892Z,8.81
2023-02-11T12:32:14.851Z,8.86
2023-02-11T12:35:10.419Z,8.85
2023-02-11T12:37:55.050Z,8.79
2023-02-11T12:40:46.224Z,8.82
2023-02-11T12:43:24.905Z,8.86
2023-02-11T12:46:09.382Z,8.84
2023-02-11T12:49:02.049Z,8.80
2023-02-11T12:51:56.492Z,8.88
2023-02-11T12:54:36.181Z,8.94
2023-02-11T12:57:19.279Z,8.91
2023-02-11T13:00:00.772Z,8.92
2023-02-11T13:02:43.359Z,8.86
2023-02-11T13:05:25.999Z,8.91
2023-02-11T13:08:06.512Z,8.91
2023-02-11T13:10:44.231Z,8.87
2023-02-11T13:13:22.392Z,8.84
2023-02-11T13:16:00.687Z,8.95
2023-02-11T13:18:50.486Z,8.88
2023-02-11T13:21:37.306Z,8.88
2023-02-11T13:24:20.779Z,8.92
2023-02-11T13:27:02.096Z,8.81
2023-02-11T13:29:49.138Z,8.76
2023-02-11T13:32:23.340Z,8.82
2023-02-11T13:34:59.585Z,8.77
2023-02-11T13:37:37.504Z,8.84
2023-02-11T13:40:24.115Z,8.78
2023-02-11T13:43:00.141Z,8.86
2023-02-11T13:45:39.716Z,8.87
2023-02-11T13:48:19.276Z,8.87
2023-02-11T13:50:56.446Z,8.83
2023-02-11T13:53:31.004Z,8.77
2023-02-11T13:56:11.290Z,8.86
2023-02-11T13:58:49.513Z,8.89
2023-02-11T14:02:16.193Z,8.88
2023-02-11T14:05:31.649Z,8.82
2023-02-11T14:08:43.248Z,8.84
2023-02-11T14:11:46.674Z,8.85
2023-02-11T14:14:23.873Z,8.87
2023-02-11T14:17:31.824Z,8.85
2023-02-11T14:20:26.309Z,8.89
2023-02-11T14:23:00.456Z,8.85
2023-02-11T14:25:34.364Z,8.88
2023-02-11T14:28:21.997Z,8.77
2023-02-11T14:31:05.814Z,8.76
2023-02-11T14:34:01.735Z,8.71
2023-02-11T14:36:56.636Z,8.70
2023-02-11T14:39:45.566Z,8.68
2023-02-11T14:42:22.700Z,8.70
2023-02-11T14:45:00.405Z,8.65
2023-02-11T14:47:41.419Z,8.63
2023-02-11T14:50:19.648Z,8.66
2023-02-11T14:52:54.352Z,8.65
2023-02-11T14:55:33.084Z,8.62
2023-02-11T14:58:16.295Z,8.60
2023-02-11T15:00:54.655Z,8.49
2023-02-11T15:03:35.240Z,8.52
2023-02-11T15:06:18.423Z,8.45
2023-02-11T15:08:54.585Z,8.45
2023-02-11T15:11:30.922Z,8.43
2023-02-11T15:14:10.145Z,8.45
2023-02-11T15:16:46.565Z,8.38
2023-02-11T15:19:25.794Z,8.30
2023-02-11T15:22:00.444Z,8.26
2023-02-11T15:24:35.895Z,8.26
2023-02-11T15:27:15.430Z,8.23
2023-02-11T15:29:50.981Z,8.24
2023-02-11T15:32:27.985Z,8.28
2023-02-11T15:35:02.399Z,8.30
2023-02-11T15:37:36.369Z,8.15
2023-02-11T15:40:12.705Z,8.24
2023-02-11T15:42:58.105Z,8.13
2023-02-11T15:45:34.124Z,8.14
2023-02-11T15:48:14.116Z,8.11
2023-02-11T15:50:53.758Z,8.18
2023-02-11T15:53:32.416Z,8.05
2023-02-11T15:56:15.835Z,8.10
2023-02-11T15:58:50.660Z,8.09
2023-02-11T16:01:33.583Z,8.11
2023-02-11T16:04:17.928Z,8.12
2023-02-11T16:06:51.815Z,8.09
2023-02-11T16:09:34.428Z,8.05
2023-02-11T16:12:27.096Z,7.98
2023-02-11T16:15:20.968Z,7.96
2023-02-11T16:17:54.664Z,7.97
2023-02-11T16:20:29.965Z,7.94
2023-02-11T16:23:44.092Z,7.91
2023-02-11T16:26:25.891Z,8.00
2023-02-11T16:29:12.390Z,7.94
2023-02-11T16:31:48.760Z,7.91
2023-02-11T16:34:24.416Z,7.97
2023-02-11T16:36:59.812Z,7.94
2023-02-11T16:39:34.089Z,7.90
2023-02-11T16:42:08.182Z,7.95
2023-02-11T16:44:41.904Z,7.93
2023-02-11T16:47:23.288Z,7.87
2023-02-11T16:49:57.491Z,7.84
2023-02-11T16:52:33.028Z,7.88
2023-02-11T16:55:08.803Z,7.82
2023-02-11T16:57:43.029Z,7.80
2023-02-11T17:00:18.034Z,7.82
2023-02-11T17:02:51.985Z,7.87
2023-02-11T17:05:26.880Z,7.93
2023-02-11T17:08:03.650Z,7.87
2023-02-11T17:10:37.808Z,7.85
2023-02-11T17:13:12.152Z,7.84
2023-02-11T17:16:10.469Z,7.83
